createdAt,value
2022-10-13T00:00:46.310Z,15.23
2022-10-13T00:03:13.685Z,19.23
2022-10-13T00:05:43.185Z,15.65
2022-10-13T00:08:11.470Z,14.77
2022-10-13T00:10:40.014Z,19.27
2022-10-13T00:13:08.324Z,17.02
2022-10-13T00:15:44.105Z,14.25
2022-10-13T00:18:11.368Z,15.18
2022-10-13T00:20:44.107Z,13.38
2022-10-13T00:23:11.009Z,13.90
2022-10-13T00:25:47.081Z,14.60
2022-10-13T00:28:16.554Z,14.40
2022-10-13T00:30:43.883Z,13.63
2022-10-13T00:33:12.541Z,15.50
2022-10-13T00:35:45.895Z,18.33
2022-10-13T00:38:13.747Z,15.25
2022-10-13T00:40:53.738Z,19.17
2022-10-13T00:43:23.705Z,13.50
2022-10-13T00:45:51.819Z,19.85
2022-10-13T00:48:28.226Z,16.45
2022-10-13T00:50:56.798Z,14.43
2022-10-13T00:53:28.797Z,14.02
2022-10-13T00:55:55.984Z,12.63
2022-10-13T00:58:25.585Z,13.45
2022-10-13T01:00:53.471Z,17.38
2022-10-13T01:03:21.419Z,18.13
2022-10-13T01:05:50.391Z,17.02
2022-10-13T01:08:19.036Z,16.73
2022-10-13T01:10:59.037Z,11.95
2022-10-13T01:13:56.491Z,13.70
2022-10-13T01:16:57.878Z,14.40
2022-10-13T01:19:59.660Z,12.00
2022-10-13T01:23:07.019Z,12.83
2022-10-13T01:26:02.924Z,12.05
2022-10-13T01:29:11.868Z,12.85
2022-10-13T01:32:08.114Z,11.05
2022-10-13T01:35:03.715Z,13.50
2022-10-13T01:41:40.626Z,12.25
2022-10-13T01:44:19.797Z,12.98
2022-10-13T01:46:48.528Z,11.23
2022-10-13T01:49:19.405Z,10.40
2022-10-13T01:51:47.770Z,11.25
2022-10-13T01:54:14.531Z,11.15
2022-10-13T01:56:41.273Z,10.95
2022-10-13T01:59:13.061Z,11.70
2022-10-13T02:02:01.907Z,12.73
2022-10-13T02:04:58.652Z,11.38
2022-10-13T02:07:51.015Z,12.20
2022-10-13T02:13:06.665Z,11.60
2022-10-13T02:15:51.145Z,9.38
2022-10-13T02:18:23.839Z,9.80
2022-10-13T02:20:51.618Z,11.52
2022-10-13T02:23:19.056Z,15.02
2022-10-13T02:25:47.652Z,11.98
2022-10-13T02:28:15.469Z,10.63
2022-10-13T02:30:43.367Z,11.23
2022-10-13T02:33:10.686Z,11.65
2022-10-13T02:35:37.977Z,15.13
2022-10-13T02:38:05.247Z,12.02
2022-10-13T02:40:32.386Z,9.25
2022-10-13T02:42:59.232Z,10.48
2022-10-13T02:45:26.238Z,12.65
2022-10-13T02:47:52.969Z,12.77
2022-10-13T02:50:19.704Z,13.00
2022-10-13T02:52:46.505Z,14.43
2022-10-13T02:55:13.199Z,10.23
2022-10-13T02:57:39.901Z,12.45
2022-10-13T03:00:08.073Z,11.32
2022-10-13T03:02:34.773Z,9.00
2022-10-13T03:05:01.488Z,10.10
2022-10-13T03:07:28.183Z,10.27
2022-10-13T03:09:54.905Z,11.23
2022-10-13T03:12:22.028Z,12.80
2022-10-13T03:14:48.953Z,15.57
2022-10-13T03:17:15.628Z,11.25
2022-10-13T03:19:42.363Z,9.48
2022-10-13T03:22:09.100Z,9.30
2022-10-13T03:24:35.817Z,13.68
2022-10-13T03:27:02.507Z,14.25
2022-10-13T03:29:29.409Z,9.35
2022-10-13T03:31:56.092Z,12.38
2022-10-13T03:34:22.805Z,12.25
2022-10-13T03:36:49.600Z,11.20
2022-10-13T03:39:16.446Z,9.32
2022-10-13T03:41:43.242Z,11.73
2022-10-13T03:44:13.577Z,12.77
2022-10-13T03:46:40.499Z,11.05
2022-10-13T03:49:07.284Z,12.43
2022-10-13T03:51:34.200Z,8.80
2022-10-13T03:54:00.881Z,13.40
2022-10-13T03:56:28.446Z,9.63
2022-10-13T03:59:00.713Z,10.90
2022-10-13T04:01:30.484Z,11.98
2022-10-13T04:03:59.471Z,10.77
2022-10-13T04:06:26.672Z,13.48
2022-10-13T04:08:53.837Z,11.73
2022-10-13T04:11:21.852Z,11.68
2022-10-13T04:13:48.566Z,12.45
2022-10-13T04:16:23.351Z,11.10
2022-10-13T04:19:00.800Z,12.88
2022-10-13T04:21:28.448Z,10.70
2022-10-13T04:23:59.973Z,10.50
2022-10-13T04:26:31.251Z,12.70
2022-10-13T04:28:58.824Z,12.10
2022-10-13T04:31:28.395Z,8.45
2022-10-13T04:33:55.232Z,10.75
2022-10-13T04:36:24.263Z,10.75
2022-10-13T04:38:51.836Z,8.90
2022-10-13T04:41:19.487Z,11.10
2022-10-13T04:43:51.256Z,11.25
2022-10-13T04:46:23.097Z,13.07
2022-10-13T04:48:50.404Z,10.73
2022-10-13T04:51:20.935Z,10.27
2022-10-13T04:53:48.221Z,12.10
2022-10-13T04:56:17.180Z,13.30
2022-10-13T04:58:45.844Z,14.07
2022-10-13T05:01:22.082Z,12.57
2022-10-13T05:03:53.629Z,19.52
2022-10-13T05:06:24.091Z,11.23
2022-10-13T05:08:51.662Z,10.75
2022-10-13T05:11:20.421Z,9.45
2022-10-13T05:13:48.486Z,24.15
2022-10-13T05:16:17.910Z,9.50
2022-10-13T05:18:45.389Z,12.38
2022-10-13T05:21:15.518Z,13.32
2022-10-13T05:23:45.164Z,13.43
2022-10-13T05:26:17.582Z,11.48
2022-10-13T05:28:45.435Z,13.10
2022-10-13T05:31:22.633Z,12.32
2022-10-13T05:33:50.327Z,15.73
2022-10-13T05:36:21.073Z,9.85
2022-10-13T05:38:56.943Z,12.65
2022-10-13T06:03:39.833Z,11.93
2022-10-13T06:06:07.013Z,12.18
2022-10-13T06:08:33.972Z,17.00
2022-10-13T06:11:00.753Z,11.38
2022-10-13T06:13:27.430Z,15.05
2022-10-13T06:15:54.170Z,11.48
2022-10-13T06:18:20.912Z,13.85
2022-10-13T06:20:47.617Z,17.65
2022-10-13T06:23:14.285Z,18.42
2022-10-13T06:25:52.504Z,12.90
2022-10-13T06:28:20.513Z,16.52
2022-10-13T06:30:53.706Z,19.17
2022-10-13T06:33:21.926Z,13.63
2022-10-13T06:35:48.901Z,17.00
2022-10-13T06:38:15.582Z,17.08
2022-10-13T06:40:42.288Z,11.57
2022-10-13T06:43:09.967Z,12.27
2022-10-13T06:45:36.753Z,14.63
2022-10-13T06:48:03.764Z,11.35
2022-10-13T06:50:32.100Z,15.25
2022-10-13T06:52:58.786Z,13.73
2022-10-13T06:55:25.588Z,14.93
2022-10-13T06:57:52.282Z,14.00
2022-10-13T07:00:19.122Z,14.85
2022-10-13T07:02:49.541Z,19.95
2022-10-13T07:05:16.231Z,10.13
2022-10-13T07:07:42.934Z,13.88
2022-10-13T07:10:09.958Z,11.90
2022-10-13T07:12:36.667Z,17.25
2022-10-13T07:15:04.713Z,15.45
2022-10-13T07:17:31.472Z,13.02
2022-10-13T07:19:58.671Z,16.95
2022-10-13T07:22:27.096Z,13.70
2022-10-13T07:24:53.801Z,13.10
2022-10-13T07:27:20.882Z,17.23
2022-10-13T07:29:47.889Z,12.85
2022-10-13T07:32:14.620Z,15.48
2022-10-13T07:34:41.400Z,13.43
2022-10-13T07:37:08.132Z,12.98
2022-10-13T07:39:34.924Z,16.75
2022-10-13T07:42:01.647Z,13.07
2022-10-13T07:44:28.488Z,14.82
2022-10-13T07:46:55.178Z,13.75
2022-10-13T07:49:22.762Z,15.13
2022-10-13T07:51:49.502Z,10.25
2022-10-13T07:54:20.634Z,15.88
2022-10-13T07:56:52.556Z,12.15
2022-10-13T07:59:19.465Z,17.52
2022-10-13T08:01:46.223Z,17.23
2022-10-13T08:04:13.056Z,13.90
2022-10-13T08:09:07.167Z,12.35
2022-10-13T08:11:33.858Z,13.60
2022-10-13T08:14:01.506Z,14.98
2022-10-13T08:16:29.589Z,12.77
2022-10-13T08:18:58.262Z,15.40
2022-10-13T08:21:56.995Z,15.82
2022-10-13T08:24:16.641Z,19.27
2022-10-13T08:26:45.411Z,13.02
2022-10-13T08:29:28.658Z,16.10
2022-10-13T08:31:55.683Z,12.48
2022-10-13T08:34:24.029Z,14.98
2022-10-13T08:36:54.125Z,12.45
2022-10-13T08:39:22.689Z,18.30
2022-10-13T08:41:50.505Z,13.52
2022-10-13T08:45:15.741Z,14.65
2022-10-13T08:47:40.537Z,13.25
2022-10-13T08:50:21.941Z,19.35
2022-10-13T08:53:13.215Z,33.47
2022-10-13T08:55:52.257Z,13.50
2022-10-13T08:58:26.016Z,10.55
2022-10-13T09:01:09.082Z,9.13
2022-10-13T09:04:08.021Z,12.07
2022-10-13T09:06:42.416Z,14.60
2022-10-13T09:09:12.243Z,12.15
2022-10-13T09:11:42.969Z,13.23
2022-10-13T09:14:23.849Z,12.13
2022-10-13T09:16:52.222Z,13.20
2022-10-13T09:19:34.051Z,14.55
2022-10-13T09:22:32.369Z,11.82
2022-10-13T09:25:15.270Z,13.15
2022-10-13T09:27:53.548Z,12.07
2022-10-13T09:30:40.653Z,8.95
2022-10-13T09:33:13.339Z,14.50
2022-10-13T09:35:42.675Z,15.05
2022-10-13T09:38:24.954Z,16.33
2022-10-13T09:41:12.912Z,9.48
2022-10-13T09:43:48.652Z,12.95
2022-10-13T09:46:35.665Z,15.75
2022-10-13T09:49:25.396Z,12.18
2022-10-13T09:51:52.382Z,8.30
2022-10-13T09:54:45.651Z,8.20
2022-10-13T09:57:35.592Z,14.50
2022-10-13T10:00:14.708Z,12.55
2022-10-13T10:02:49.687Z,11.90
2022-10-13T10:05:48.189Z,11.93
2022-10-13T10:09:02.855Z,10.80
2022-10-13T10:11:34.799Z,7.72
2022-10-13T10:14:28.867Z,7.13
2022-10-13T10:17:29.471Z,7.30
2022-10-13T10:19:56.106Z,8.93
2022-10-13T10:22:57.011Z,10.48
2022-10-13T10:25:49.302Z,8.27
2022-10-13T10:29:01.576Z,11.05
2022-10-13T10:34:35.430Z,10.50
2022-10-13T10:37:21.440Z,7.15
2022-10-13T10:40:34.841Z,9.95
2022-10-13T10:43:29.327Z,9.95
2022-10-13T10:45:59.105Z,10.48
2022-10-13T10:48:36.184Z,8.32
2022-10-13T10:51:06.402Z,9.40
2022-10-13T10:54:16.800Z,9.25
2022-10-13T10:56:53.060Z,10.18
2022-10-13T10:59:29.237Z,10.32
2022-10-13T11:02:07.985Z,10.20
2022-10-13T11:04:41.885Z,10.25
2022-10-13T11:07:33.429Z,10.13
2022-10-13T11:10:01.377Z,8.25
2022-10-13T11:12:52.951Z,8.90
2022-10-13T11:15:31.067Z,12.80
2022-10-13T11:17:58.072Z,10.05
2022-10-13T11:20:25.272Z,10.20
2022-10-13T11:23:12.161Z,9.68
2022-10-13T11:25:40.936Z,11.02
2022-10-13T11:28:22.980Z,8.57
2022-10-13T11:30:55.178Z,8.27
2022-10-13T11:33:38.355Z,7.18
2022-10-13T11:36:39.633Z,8.02
2022-10-13T11:39:27.479Z,7.57
2022-10-13T11:42:12.195Z,8.30
2022-10-13T11:44:58.787Z,18.20
2022-10-13T11:47:55.465Z,7.88
2022-10-13T11:50:51.946Z,9.43
2022-10-13T11:54:04.178Z,6.70
2022-10-13T11:56:54.105Z,7.85
2022-10-13T11:59:35.578Z,8.57
2022-10-13T12:02:11.418Z,11.43
2022-10-13T12:04:45.549Z,7.75
2022-10-13T12:07:15.959Z,7.57
2022-10-13T12:09:55.035Z,9.55
2022-10-13T12:12:24.073Z,8.32
2022-10-13T12:14:54.989Z,10.18
2022-10-13T12:17:27.738Z,7.37
2022-10-13T12:20:24.097Z,9.40
2022-10-13T12:22:52.799Z,10.38
2022-10-13T12:25:23.094Z,7.75
2022-10-13T12:28:00.357Z,9.63
2022-10-13T12:30:36.989Z,6.15
2022-10-13T12:33:19.633Z,6.30
2022-10-13T12:35:46.355Z,7.35
2022-10-13T12:38:20.374Z,8.88
2022-10-13T12:40:53.422Z,8.35
2022-10-13T12:43:26.500Z,7.57
2022-10-13T12:45:53.378Z,7.97
2022-10-13T12:48:36.080Z,8.00
2022-10-13T12:51:28.017Z,8.18
2022-10-13T12:53:55.089Z,6.07
2022-10-13T12:56:31.319Z,5.75
2022-10-13T12:58:58.975Z,7.78
2022-10-13T13:01:33.434Z,14.45
2022-10-13T13:04:16.238Z,11.00
2022-10-13T13:07:03.289Z,9.75
2022-10-13T13:09:35.474Z,11.07
2022-10-13T13:12:11.117Z,11.45
2022-10-13T13:14:49.218Z,7.40
2022-10-13T13:17:38.420Z,10.18
2022-10-13T13:20:33.191Z,10.90
2022-10-13T13:23:00.676Z,6.47
2022-10-13T13:25:27.602Z,8.43
2022-10-13T13:27:54.522Z,9.38
2022-10-13T13:30:23.690Z,8.35
2022-10-13T13:32:50.752Z,9.73
2022-10-13T13:35:17.633Z,12.82
2022-10-13T13:37:48.068Z,8.77
2022-10-13T13:40:18.349Z,8.07
2022-10-13T13:42:45.190Z,7.40
2022-10-13T13:45:18.049Z,10.40
2022-10-13T13:47:44.976Z,10.18
2022-10-13T13:50:19.078Z,9.35
2022-10-13T13:52:45.894Z,11.20
2022-10-13T13:55:12.620Z,8.65
2022-10-13T13:57:39.354Z,8.30
2022-10-13T14:00:07.211Z,12.05
2022-10-13T14:02:33.920Z,8.27
2022-10-13T14:05:00.613Z,11.10
2022-10-13T14:07:27.312Z,10.13
2022-10-13T14:09:57.805Z,10.02
2022-10-13T14:12:30.628Z,9.18
2022-10-13T14:14:58.409Z,11.73
2022-10-13T14:17:28.417Z,9.98
2022-10-13T14:19:55.486Z,10.90
2022-10-13T14:22:23.021Z,12.43
2022-10-13T14:24:49.977Z,9.07
2022-10-13T14:27:16.746Z,8.82
2022-10-13T14:29:43.548Z,9.07
2022-10-13T14:32:10.254Z,12.35
2022-10-13T14:34:36.938Z,11.45
2022-10-13T14:37:03.747Z,13.15
2022-10-13T14:39:30.451Z,12.75
2022-10-13T14:41:57.162Z,9.38
2022-10-13T14:44:23.900Z,10.35
2022-10-13T14:46:50.583Z,11.73
2022-10-13T14:49:17.288Z,9.27
2022-10-13T14:51:44.276Z,10.52
2022-10-13T14:54:10.982Z,11.40
2022-10-13T14:56:37.772Z,11.73
2022-10-13T14:59:06.942Z,12.25
2022-10-13T15:01:34.209Z,8.23
2022-10-13T15:04:01.630Z,9.75
2022-10-13T15:06:28.630Z,9.95
2022-10-13T15:08:55.599Z,14.13
2022-10-13T15:11:23.422Z,12.10
2022-10-13T15:13:50.177Z,15.75
2022-10-13T15:16:28.065Z,13.25
2022-10-13T15:18:56.029Z,12.57
2022-10-13T15:21:23.864Z,16.33
2022-10-13T15:23:50.985Z,10.43
2022-10-13T15:26:19.282Z,10.65
2022-10-13T15:28:49.151Z,10.43
2022-10-13T15:31:18.293Z,13.25
2022-10-13T15:33:51.718Z,9.07
2022-10-13T15:36:20.161Z,8.57
2022-10-13T15:38:46.925Z,9.63
2022-10-13T15:41:13.714Z,10.63
2022-10-13T15:43:40.482Z,12.35
2022-10-13T15:46:11.559Z,10.52
2022-10-13T15:48:39.492Z,13.97
2022-10-13T15:51:14.410Z,13.23
2022-10-13T15:53:41.248Z,11.05
2022-10-13T15:56:08.728Z,11.45
2022-10-13T15:58:36.162Z,12.05
2022-10-13T16:01:08.846Z,14.82
2022-10-13T16:03:36.733Z,10.90
2022-10-13T16:06:07.322Z,13.32
2022-10-13T16:08:43.549Z,17.63
2022-10-13T16:11:21.976Z,13.13
2022-10-13T16:13:51.504Z,12.70
2022-10-13T16:16:18.925Z,14.95
2022-10-13T16:18:45.914Z,12.15
2022-10-13T16:21:18.925Z,11.13
2022-10-13T16:23:47.378Z,17.42
2022-10-13T16:26:17.206Z,13.13
2022-10-13T16:28:45.683Z,14.35
2022-10-13T16:31:15.454Z,17.25
2022-10-13T16:33:43.776Z,12.27
2022-10-13T16:36:17.361Z,14.77
2022-10-13T16:38:45.987Z,14.00
2022-10-13T16:41:18.050Z,15.55
2022-10-13T16:43:45.838Z,16.92
2022-10-13T16:46:16.131Z,14.90
2022-10-13T16:48:44.701Z,17.17
2022-10-13T16:51:30.006Z,14.00
2022-10-13T16:54:03.883Z,13.68
2022-10-13T16:56:31.847Z,16.58
2022-10-13T16:59:04.893Z,15.45
2022-10-13T17:01:33.173Z,12.70
2022-10-13T17:04:00.697Z,12.45
2022-10-13T17:06:28.932Z,16.75
2022-10-13T17:08:58.532Z,14.30
2022-10-13T17:11:29.000Z,16.75
2022-10-13T17:14:00.657Z,15.23
2022-10-13T17:16:27.996Z,16.88
2022-10-13T17:18:55.512Z,12.73
2022-10-13T17:21:22.358Z,17.35
2022-10-13T17:23:50.350Z,15.82
2022-10-13T17:26:18.990Z,14.60
2022-10-13T17:28:46.005Z,16.73
2022-10-13T17:31:22.195Z,16.52
2022-10-13T17:33:50.069Z,19.13
2022-10-13T17:36:24.713Z,17.20
2022-10-13T17:38:53.324Z,18.02
2022-10-13T17:41:20.918Z,15.48
2022-10-13T17:43:48.384Z,15.15
2022-10-13T17:46:36.284Z,19.40
2022-10-13T17:49:06.604Z,16.02
2022-10-13T17:51:33.333Z,17.92
2022-10-13T17:54:00.883Z,15.30
2022-10-13T17:56:28.896Z,19.77
2022-10-13T17:58:55.787Z,21.35
2022-10-13T18:01:32.447Z,18.88
2022-10-13T18:04:03.680Z,19.33
2022-10-13T18:06:37.927Z,16.00
2022-10-13T18:09:08.932Z,20.95
2022-10-13T18:11:36.445Z,18.70
2022-10-13T18:14:04.273Z,14.93
2022-10-13T18:16:31.073Z,13.85
2022-10-13T18:18:57.748Z,15.55
2022-10-13T18:21:27.695Z,13.88
2022-10-13T18:23:59.446Z,18.60
2022-10-13T18:26:28.946Z,14.48
2022-10-13T18:28:56.879Z,16.80
2022-10-13T18:31:31.626Z,17.55
2022-10-13T18:34:12.528Z,14.68
2022-10-13T18:36:48.366Z,15.13
2022-10-13T18:39:27.589Z,16.13
2022-10-13T18:41:56.425Z,14.27
2022-10-13T18:44:25.010Z,15.38
2022-10-13T18:46:53.744Z,11.05
2022-10-13T18:49:30.710Z,12.57
2022-10-13T18:52:01.589Z,12.02
2022-10-13T18:54:30.202Z,12.05
2022-10-13T18:56:57.389Z,13.15
2022-10-13T18:59:24.323Z,12.15
2022-10-13T19:01:51.211Z,15.18
2022-10-13T19:04:17.919Z,10.00
2022-10-13T19:06:46.258Z,11.15
2022-10-13T19:09:15.137Z,10.40
2022-10-13T19:11:41.970Z,8.90
2022-10-13T19:14:12.584Z,10.73
2022-10-13T19:16:42.238Z,9.90
2022-10-13T19:19:09.412Z,12.98
2022-10-13T19:21:38.262Z,11.65
2022-10-13T19:24:06.221Z,8.80
2022-10-13T19:26:35.100Z,11.23
2022-10-13T19:29:11.857Z,11.85
2022-10-13T19:31:41.796Z,9.20
2022-10-13T19:34:10.650Z,9.82
2022-10-13T19:36:41.678Z,8.07
2022-10-13T19:39:20.158Z,6.82
2022-10-13T19:41:49.032Z,9.00
2022-10-13T19:44:17.817Z,8.98
2022-10-13T19:46:46.744Z,7.85
2022-10-13T19:49:17.035Z,9.02
2022-10-13T19:51:43.738Z,10.13
2022-10-13T19:54:11.186Z,7.70
2022-10-13T19:56:38.600Z,9.10
2022-10-13T19:59:05.326Z,8.10
2022-10-13T20:01:39.700Z,6.60
2022-10-13T20:04:07.917Z,7.03
2022-10-13T20:06:35.283Z,8.20
2022-10-13T20:09:01.972Z,8.10
2022-10-13T20:11:28.711Z,9.18
2022-10-13T20:13:55.406Z,8.07
2022-10-13T20:16:24.673Z,6.63
2022-10-13T20:18:58.073Z,11.82
2022-10-13T20:21:27.214Z,7.78
2022-10-13T20:23:53.968Z,8.27
2022-10-13T20:26:21.625Z,6.13
2022-10-13T20:28:50.673Z,7.80
2022-10-13T20:31:20.050Z,7.38
2022-10-13T20:33:49.226Z,7.13
2022-10-13T20:36:18.968Z,11.25
2022-10-13T20:38:49.074Z,7.38
2022-10-13T20:41:24.760Z,9.43
2022-10-13T20:43:53.791Z,7.65
2022-10-13T20:46:21.688Z,9.95
2022-10-13T20:49:09.814Z,9.82
2022-10-13T20:51:36.050Z,8.38
2022-10-13T20:54:02.984Z,9.55
2022-10-13T20:56:29.807Z,11.98
2022-10-13T20:58:56.650Z,10.70
2022-10-13T21:01:23.804Z,9.23
2022-10-13T21:03:55.158Z,14.07
2022-10-13T21:06:23.811Z,11.20
2022-10-13T21:08:51.030Z,9.15
2022-10-13T21:11:20.660Z,7.63
2022-10-13T21:13:48.495Z,13.88
2022-10-13T21:16:19.182Z,13.75
2022-10-13T21:18:48.809Z,11.82
2022-10-13T21:21:19.664Z,12.07
2022-10-13T21:23:56.520Z,12.30
2022-10-13T21:26:25.099Z,9.70
2022-10-13T21:28:52.598Z,13.80
2022-10-13T21:31:22.168Z,8.70
2022-10-13T21:33:49.777Z,13.65
2022-10-13T21:36:20.655Z,13.23
2022-10-13T21:38:51.259Z,12.95
2022-10-13T21:41:18.132Z,10.98
2022-10-13T21:43:44.879Z,13.05
2022-10-13T21:46:25.263Z,14.15
2022-10-13T21:48:54.911Z,14.63
2022-10-13T21:51:25.450Z,17.35
2022-10-13T21:53:55.518Z,14.80
2022-10-13T21:56:23.393Z,18.70
2022-10-13T21:58:50.099Z,13.68
2022-10-13T22:01:18.707Z,14.65
2022-10-13T22:03:52.207Z,14.45
2022-10-13T22:06:19.763Z,16.20
2022-10-13T22:08:49.728Z,17.95
2022-10-13T22:11:17.495Z,13.88
2022-10-13T22:13:44.397Z,17.63
2022-10-13T22:16:19.609Z,17.30
2022-10-13T22:18:47.191Z,16.88
2022-10-13T22:21:19.010Z,19.02
2022-10-13T22:23:46.269Z,20.45
2022-10-13T22:26:15.103Z,18.77
2022-10-13T22:28:42.640Z,24.40
2022-10-13T22:31:12.560Z,23.10
2022-10-13T22:33:41.504Z,20.63
2022-10-13T22:36:16.542Z,18.88
2022-10-13T22:38:46.496Z,17.63
2022-10-13T22:41:14.524Z,22.33
2022-10-13T22:43:43.985Z,20.02
2022-10-13T22:46:16.422Z,19.00
2022-10-13T22:48:43.973Z,17.08
2022-10-13T22:51:15.708Z,18.92
2022-10-13T22:53:43.276Z,19.27
2022-10-13T22:56:18.073Z,17.75
2022-10-13T22:58:53.113Z,20.48
2022-10-13T23:01:21.112Z,16.48
2022-10-13T23:03:49.812Z,24.17
2022-10-13T23:06:20.846Z,17.95
2022-10-13T23:08:48.772Z,17.88
2022-10-13T23:11:16.786Z,21.17
2022-10-13T23:13:43.647Z,18.60
2022-10-13T23:16:15.279Z,32.25
2022-10-13T23:18:42.909Z,19.45
2022-10-13T23:21:14.172Z,21.95
2022-10-13T23:23:40.925Z,18.92
2022-10-13T23:26:14.538Z,19.58
2022-10-13T23:28:42.086Z,20.45
2022-10-13T23:31:13.582Z,24.00
2022-10-13T23:33:40.512Z,20.52
2022-10-13T23:36:08.265Z,17.95
2022-10-13T23:38:35.328Z,20.70
2022-10-13T23:41:08.649Z,22.02
2022-10-13T23:43:35.905Z,17.65
2022-10-13T23:46:03.437Z,17.83
2022-10-13T23:48:30.121Z,17.85
2022-10-13T23:50:57.323Z,19.20
2022-10-13T23:53:24.331Z,23.20
2022-10-13T23:55:51.017Z,17.25
2022-10-13T23:58:17.726Z,17.38
